• Join FlightAware (Why Join?)
  • Login
  • US Flag 
06:09PM EDT


 

Airport Tracker/Info


-or-


 

Live Flight TrackerFlight Track Log ✈ SKW6534 ✈ 23-Apr-2013 ✈ KDEN - KIDA

Flight Track Log - Related Links

Times and Time Zones

All times are in EDT time to prevent confusion due to time zone crossing. See the SKW6534 flight status page for this flight to view local times or setup timezone preferences in your user account.

Time Position Orientation Groundspeed Altitude Reporting Facility
EDT Latitude Longitude Course Direction KTS MPH feet Rate Location/Type
02:14PM 39.9000 -104.6833 346° North 158 182 6,500  Level Denver TRACON
02:15PM 39.9667 -104.6833 360° North 216 249 8,200 1,980 Climbing Denver TRACON
02:16PM 40.1734 -104.7737 347° North  Level FlightAware Approximate
02:16PM 40.0333 -104.6667 11° North 269 310 10,500  Level Denver TRACON
02:17PM 40.2820 -104.8063 347° North  Level FlightAware Approximate
02:17PM 40.1167 -104.6667 360° North 295 339 12,700  Level Denver TRACON
02:18PM 40.3902 -104.8412 346° North  Level FlightAware Approximate
02:18PM 40.2053 -104.6969 345° North 316 364 15,400  Level Denver Center
02:19PM 40.4982 -104.8772 346° North  Level FlightAware Approximate
02:19PM 40.2994 -104.7208 349° North 332 382 17,600  Level Denver Center
02:20PM 40.3950 -104.7458 349° North 348 400 19,100 1,620 Climbing Denver Center
02:21PM 40.4994 -104.7736 349° North 357 411 21,000 1,620 Climbing Denver Center
02:22PM 40.5994 -104.8003 349° North 361 415 22,500 1,320 Climbing Denver Center
02:23PM 40.7033 -104.8286 348° North 380 437 23,800 1,200 Climbing Denver Center
02:24PM 40.8133 -104.8619 347° North 378 435 25,100 1,020 Climbing Denver Center
02:25PM 40.9147 -104.9133 339° North 385 443 26,000 420 Climbing Denver Center
02:26PM 41.0100 -104.9575 341° North 396 456 26,000  Level Denver Center
02:27PM 41.1292 -105.0175 339° North 408 470 26,000  Level Denver Center
02:28PM 41.2317 -105.0669 340° North 408 470 26,000  Level Denver Center
02:29PM 41.3506 -105.1258 340° North 408 470 26,000  Level Denver Center
02:30PM 41.4536 -105.1789 339° North 412 474 26,000  Level Denver Center
02:31PM 41.5658 -105.2597 332° Northwest 426 490 26,000  Level Denver Center
02:32PM 41.6067 -105.3897 293° West 409 471 26,000  Level Denver Center
02:33PM 41.6400 -105.5556 285° West 411 473 26,000  Level Denver Center
02:34PM 41.6714 -105.6947 287° West 411 473 26,000  Level Denver Center
02:35PM 41.7036 -105.8342 287° West 410 472 26,000  Level Denver Center
02:36PM 41.7414 -105.9981 287° West 411 473 26,000  Level Denver Center
02:37PM 41.7728 -106.1397 287° West 414 476 26,000  Level Denver Center
02:38PM 41.8106 -106.3047 287° West 414 476 26,000  Level Denver Center
02:39PM 41.8406 -106.4450 286° West 410 472 26,000  Level Denver Center
02:40PM 41.8758 -106.6033 287° West 415 478 26,000  Level Denver Center
02:41PM 41.9114 -106.7664 286° West 411 473 26,000  Level Denver Center
02:42PM 41.9428 -106.9075 287° West 412 474 26,000  Level Denver Center
02:43PM 41.9736 -107.0478 287° West 411 473 26,000  Level Denver Center
02:44PM 42.0083 -107.2122 286° West 410 472 26,000  Level Denver Center
02:45PM 42.0386 -107.3528 286° West 410 472 26,000  Level Denver Center
02:47PM 42.0722 -107.5181 285° West 411 473 26,000  Level Denver Center
02:48PM 42.1019 -107.6592 286° West 410 472 26,000  Level Denver Center
02:49PM 42.1467 -107.8175 291° West 409 471 26,000  Level Salt Lake Center
02:50PM 42.1933 -107.9508 295° West 411 473 26,000  Level Salt Lake Center
02:52PM 42.2919 -108.2350 295° West 402 463 26,000  Level Salt Lake Center
02:53PM 42.3453 -108.3906 295° West 408 470 26,000  Level Salt Lake Center
02:54PM 42.3922 -108.5244 295° West 411 473 26,000  Level Salt Lake Center
02:55PM 42.4361 -108.6569 294° West 410 472 26,000  Level Salt Lake Center
02:56PM 42.4881 -108.8125 294° West 409 471 26,000  Level Salt Lake Center
02:57PM 42.5322 -108.9467 294° West 408 470 26,000  Level Salt Lake Center
02:58PM 42.5847 -109.1039 294° West 410 472 26,000  Level Salt Lake Center
02:59PM 42.6278 -109.2375 294° West 407 468 26,000  Level Salt Lake Center
03:00PM 42.6786 -109.3939 294° West 406 467 26,000  Level Salt Lake Center
03:01PM 42.7228 -109.5286 294° West 407 468 26,000  Level Salt Lake Center
03:02PM 42.7731 -109.6839 294° West 405 466 26,000  Level Salt Lake Center
03:03PM 42.8161 -109.8161 294° West 402 463 26,000  Level Salt Lake Center
03:04PM 42.8672 -109.9714 294° West 401 461 26,000  Level Salt Lake Center
03:05PM 42.9100 -110.1033 294° West 398 458 26,000  Level Salt Lake Center
03:06PM 42.9506 -110.2319 293° West 393 452 26,000  Level Salt Lake Center
03:07PM 42.9983 -110.3861 293° West 391 450 26,000  Level Salt Lake Center
03:08PM 43.0400 -110.5161 294° West 390 449 26,000  Level Salt Lake Center
03:09PM 43.0878 -110.6667 294° West 388 447 26,000  Level Salt Lake Center
03:10PM 43.1289 -110.7972 293° West 389 448 26,000 -480 Level Salt Lake Center
03:11PM 43.1764 -110.9475 293° West 387 445 25,100 -1,200 Descending Salt Lake Center
03:12PM 43.2164 -111.0803 292° West 392 451 23,600 -1,440 Descending Salt Lake Center
03:13PM 43.2578 -111.2142 293° West 397 457 22,200 -1,620 Descending Salt Lake Center
03:14PM 43.3069 -111.3711 293° West 399 459 20,300 -2,280 Descending Salt Lake Center
03:15PM 43.3461 -111.5003 293° West 390 449 17,600 -2,940 Descending Salt Lake Center
03:16PM 43.3822 -111.6467 289° West 377 434 14,300 -2,760 Descending Salt Lake Center
03:17PM 43.3839 -111.7639 271° West 342 394 12,000 -2,100 Descending Salt Lake Center
03:18PM 43.3744 -111.8900 264° West 318 366 10,100 -1,680 Descending Salt Lake Center
03:19PM 43.3656 -111.9883 263° West 296 341 8,600 -1,380 Descending Salt Lake Center
03:20PM 43.3881 -112.0686 291° West 263 303 7,300 -1,140 Descending Salt Lake Center
03:22PM 43.4275 -112.1300 312° West 219 252 6,300 -780 Descending Salt Lake Center
03:23PM 43.4661 -112.1281 North 179 206 5,800 -540 Descending Salt Lake Center